createdAt,value
2023-02-23T00:00:44.028Z,814.00
2023-02-23T00:01:44.023Z,813.00
2023-02-23T00:02:44.072Z,797.00
2023-02-23T00:03:44.013Z,796.00
2023-02-23T00:04:43.964Z,786.00
2023-02-23T00:05:43.955Z,784.00
2023-02-23T00:06:43.946Z,790.00
2023-02-23T00:07:43.926Z,793.00
2023-02-23T00:08:43.907Z,780.00
2023-02-23T00:09:43.891Z,777.00
2023-02-23T00:10:43.879Z,782.00
2023-02-23T00:11:43.876Z,783.00
2023-02-23T00:12:43.928Z,799.00
2023-02-23T00:13:43.841Z,804.00
2023-02-23T00:14:43.835Z,799.00
2023-02-23T00:15:43.809Z,806.00
2023-02-23T00:16:43.875Z,801.00
2023-02-23T00:17:43.789Z,763.00
2023-02-23T00:18:43.820Z,765.00
2023-02-23T00:19:44.140Z,769.00
2023-02-23T00:20:43.746Z,773.00
2023-02-23T00:21:43.751Z,765.00
2023-02-23T00:22:43.734Z,769.00
2023-02-23T00:23:43.699Z,774.00
2023-02-23T00:24:43.688Z,778.00
2023-02-23T00:25:43.659Z,777.00
2023-02-23T00:26:43.649Z,789.00
2023-02-23T00:27:43.627Z,786.00
2023-02-23T00:28:43.627Z,794.00
2023-02-23T00:29:43.595Z,778.00
2023-02-23T00:30:43.608Z,791.00
2023-02-23T00:31:43.678Z,801.00
2023-02-23T00:32:43.630Z,810.00
2023-02-23T00:33:43.529Z,802.00
2023-02-23T00:34:43.525Z,790.00
2023-02-23T00:35:43.500Z,789.00
2023-02-23T00:36:43.495Z,775.00
2023-02-23T00:37:43.470Z,776.00
2023-02-23T00:38:43.460Z,778.00
2023-02-23T00:39:43.442Z,783.00
2023-02-23T00:40:43.428Z,791.00
2023-02-23T00:41:43.408Z,796.00
2023-02-23T00:42:43.398Z,791.00
2023-02-23T00:43:43.367Z,779.00
2023-02-23T00:44:43.351Z,782.00
2023-02-23T00:45:43.390Z,781.00
2023-02-23T00:46:43.326Z,783.00
2023-02-23T00:47:43.325Z,784.00
2023-02-23T00:48:43.286Z,786.00
2023-02-23T00:49:43.251Z,760.00
2023-02-23T00:50:43.242Z,762.00
2023-02-23T00:51:43.218Z,772.00
2023-02-23T00:52:43.212Z,773.00
2023-02-23T00:53:43.190Z,775.00
2023-02-23T00:54:43.180Z,776.00
2023-02-23T00:55:43.141Z,781.00
2023-02-23T00:56:43.131Z,780.00
2023-02-23T00:57:43.108Z,789.00
2023-02-23T00:58:43.093Z,787.00
2023-02-23T00:59:43.078Z,769.00
2023-02-23T01:00:43.057Z,773.00
2023-02-23T01:01:43.117Z,787.00
2023-02-23T01:02:43.109Z,779.00
2023-02-23T01:03:43.006Z,769.00
2023-02-23T01:04:42.982Z,768.00
2023-02-23T01:05:42.968Z,787.00
2023-02-23T01:06:42.963Z,765.00
2023-02-23T01:07:42.950Z,765.00
2023-02-23T01:08:42.924Z,777.00
2023-02-23T01:09:42.905Z,754.00
2023-02-23T01:10:42.896Z,780.00
2023-02-23T01:11:42.885Z,772.00
2023-02-23T01:12:42.886Z,755.00
2023-02-23T01:13:42.875Z,769.00
2023-02-23T01:14:42.867Z,783.00
2023-02-23T01:15:42.869Z,782.00
2023-02-23T01:16:42.822Z,784.00
2023-02-23T01:17:42.802Z,787.00
2023-02-23T01:18:42.812Z,757.00
2023-02-23T01:19:42.768Z,757.00
2023-02-23T01:20:42.761Z,751.00
2023-02-23T01:21:42.763Z,772.00
2023-02-23T01:22:42.734Z,754.00
2023-02-23T01:23:42.729Z,761.00
2023-02-23T01:24:42.707Z,764.00
2023-02-23T01:25:42.686Z,757.00
2023-02-23T01:26:42.672Z,767.00
2023-02-23T01:27:42.655Z,764.00
2023-02-23T01:28:42.648Z,750.00
2023-02-23T01:29:42.643Z,761.00
2023-02-23T01:30:42.791Z,769.00
2023-02-23T01:31:42.772Z,749.00
2023-02-23T01:32:42.604Z,737.00
2023-02-23T01:33:42.598Z,725.00
2023-02-23T01:34:42.598Z,728.00
2023-02-23T01:35:42.595Z,730.00
2023-02-23T01:36:42.580Z,734.00
2023-02-23T01:37:42.580Z,743.00
2023-02-23T01:38:42.559Z,745.00
2023-02-23T01:39:42.539Z,763.00
2023-02-23T01:40:42.529Z,754.00
2023-02-23T01:41:42.619Z,763.00
2023-02-23T01:42:42.514Z,750.00
2023-02-23T01:43:42.498Z,746.00
2023-02-23T01:44:42.486Z,753.00
2023-02-23T01:45:42.484Z,739.00
2023-02-23T01:46:42.467Z,724.00
2023-02-23T01:47:42.452Z,740.00
2023-02-23T01:48:42.440Z,741.00
2023-02-23T01:49:42.444Z,743.00
2023-02-23T01:50:42.431Z,742.00
2023-02-23T01:51:42.414Z,729.00
2023-02-23T01:52:42.403Z,731.00
2023-02-23T01:53:42.394Z,729.00
2023-02-23T01:54:42.384Z,731.00
2023-02-23T01:55:42.373Z,712.00
2023-02-23T01:56:42.364Z,720.00
2023-02-23T01:57:42.347Z,722.00
2023-02-23T01:58:42.337Z,727.00
2023-02-23T01:59:42.317Z,717.00
2023-02-23T02:00:42.307Z,719.00
2023-02-23T02:01:42.381Z,722.00
2023-02-23T02:02:42.273Z,723.00
2023-02-23T02:03:42.262Z,722.00
2023-02-23T02:04:42.314Z,724.00
2023-02-23T02:05:42.239Z,725.00
2023-02-23T02:06:42.224Z,734.00
2023-02-23T02:07:42.224Z,735.00
2023-02-23T02:08:42.217Z,734.00
2023-02-23T02:09:42.195Z,741.00
2023-02-23T02:10:42.169Z,723.00
2023-02-23T02:11:42.151Z,738.00
2023-02-23T02:12:42.151Z,737.00
2023-02-23T02:13:42.134Z,738.00
2023-02-23T02:14:42.123Z,739.00
2023-02-23T02:15:42.106Z,739.00
2023-02-23T02:16:42.074Z,747.00
2023-02-23T02:17:42.059Z,758.00
2023-02-23T02:18:42.059Z,759.00
2023-02-23T02:19:42.040Z,763.00
2023-02-23T02:20:42.029Z,750.00
2023-02-23T02:21:42.001Z,746.00
2023-02-23T02:22:41.999Z,733.00
2023-02-23T02:23:41.972Z,728.00
2023-02-23T02:24:42.052Z,718.00
2023-02-23T02:25:41.947Z,734.00
2023-02-23T02:26:41.924Z,725.00
2023-02-23T02:27:41.913Z,718.00
2023-02-23T02:28:41.902Z,712.00
2023-02-23T02:29:41.882Z,722.00
2023-02-23T02:30:41.886Z,731.00
2023-02-23T02:31:41.922Z,735.00
2023-02-23T02:32:41.820Z,739.00
2023-02-23T02:33:41.807Z,736.00
2023-02-23T02:34:41.792Z,728.00
2023-02-23T02:35:41.782Z,734.00
2023-02-23T02:36:41.760Z,735.00
2023-02-23T02:37:41.732Z,733.00
2023-02-23T02:38:41.718Z,724.00
2023-02-23T02:39:41.693Z,731.00
2023-02-23T02:40:41.681Z,730.00
2023-02-23T02:41:41.665Z,740.00
2023-02-23T02:42:41.650Z,721.00
2023-02-23T02:43:41.632Z,731.00
2023-02-23T02:44:41.621Z,722.00
2023-02-23T02:45:41.599Z,710.00
2023-02-23T02:46:41.614Z,688.00
2023-02-23T02:47:41.578Z,719.00
2023-02-23T02:48:41.555Z,725.00
2023-02-23T02:49:41.542Z,719.00
2023-02-23T02:50:41.521Z,712.00
2023-02-23T02:51:41.510Z,720.00
2023-02-23T02:52:41.482Z,724.00
2023-02-23T02:53:41.471Z,720.00
2023-02-23T02:54:41.481Z,715.00
2023-02-23T02:55:41.449Z,715.00
2023-02-23T02:56:41.444Z,717.00
2023-02-23T02:57:41.425Z,719.00
2023-02-23T02:58:41.407Z,712.00
2023-02-23T02:59:41.403Z,713.00
2023-02-23T03:00:41.376Z,720.00
2023-02-23T03:01:41.430Z,709.00
2023-02-23T03:02:41.362Z,712.00
2023-02-23T03:03:41.329Z,712.00
2023-02-23T03:04:41.318Z,714.00
2023-02-23T03:05:41.304Z,717.00
2023-02-23T03:06:41.297Z,719.00
2023-02-23T03:07:41.267Z,718.00
2023-02-23T03:08:41.259Z,717.00
2023-02-23T03:09:41.241Z,702.00
2023-02-23T03:10:41.224Z,709.00
2023-02-23T03:11:41.218Z,724.00
2023-02-23T03:12:41.194Z,722.00
2023-02-23T03:13:41.189Z,703.00
2023-02-23T03:14:41.171Z,700.00
2023-02-23T03:15:41.185Z,704.00
2023-02-23T03:16:41.144Z,702.00
2023-02-23T03:17:41.145Z,717.00
2023-02-23T03:18:41.127Z,714.00
2023-02-23T03:19:41.142Z,716.00
2023-02-23T03:20:41.106Z,721.00
2023-02-23T03:21:41.140Z,714.00
2023-02-23T03:22:41.083Z,704.00
2023-02-23T03:23:41.088Z,703.00
2023-02-23T03:24:41.058Z,703.00
2023-02-23T03:25:41.054Z,709.00
2023-02-23T03:26:41.031Z,717.00
2023-02-23T03:27:41.023Z,699.00
2023-02-23T03:28:41.003Z,714.00
2023-02-23T03:29:41.000Z,723.00
2023-02-23T03:30:41.001Z,723.00
2023-02-23T03:31:41.022Z,709.00
2023-02-23T03:32:41.005Z,708.00
2023-02-23T03:33:40.944Z,708.00
2023-02-23T03:34:40.928Z,706.00
2023-02-23T03:35:40.914Z,708.00
2023-02-23T03:36:40.900Z,703.00
2023-02-23T03:37:40.893Z,705.00
2023-02-23T03:38:40.872Z,715.00
2023-02-23T03:39:40.857Z,697.00
2023-02-23T03:40:40.843Z,703.00
2023-02-23T03:41:40.837Z,698.00
2023-02-23T03:42:40.814Z,702.00
2023-02-23T03:43:40.810Z,693.00
2023-02-23T03:44:40.788Z,696.00
2023-02-23T03:45:40.845Z,669.00
2023-02-23T03:46:40.781Z,662.00
2023-02-23T03:47:40.758Z,665.00
2023-02-23T03:48:40.748Z,673.00
2023-02-23T03:49:40.726Z,679.00
2023-02-23T03:50:40.716Z,673.00
2023-02-23T03:51:40.729Z,658.00
2023-02-23T03:52:40.704Z,649.00
2023-02-23T03:53:40.711Z,646.00
2023-02-23T03:54:40.683Z,661.00
2023-02-23T03:55:40.692Z,659.00
2023-02-23T03:56:40.748Z,644.00
2023-02-23T03:57:40.656Z,643.00
2023-02-23T03:58:40.658Z,647.00
2023-02-23T03:59:40.645Z,650.00
2023-02-23T04:00:40.640Z,657.00
2023-02-23T04:01:40.649Z,652.00
2023-02-23T04:02:40.643Z,647.00
2023-02-23T04:03:40.666Z,640.00
2023-02-23T04:04:40.597Z,643.00
2023-02-23T04:05:40.582Z,646.00
2023-02-23T04:06:40.562Z,649.00
2023-02-23T04:07:40.546Z,643.00
2023-02-23T04:08:40.535Z,638.00
2023-02-23T04:09:40.538Z,637.00
2023-02-23T04:10:40.517Z,643.00
2023-02-23T04:11:40.521Z,639.00
2023-02-23T04:12:40.525Z,643.00
2023-02-23T04:13:40.490Z,637.00
2023-02-23T04:14:40.497Z,632.00
2023-02-23T04:15:40.487Z,633.00
2023-02-23T04:16:40.533Z,633.00
2023-02-23T04:17:40.459Z,636.00
2023-02-23T04:18:40.454Z,640.00
2023-02-23T04:19:40.459Z,629.00
2023-02-23T04:20:40.483Z,626.00
2023-02-23T04:21:40.455Z,619.00
2023-02-23T04:22:40.434Z,627.00
2023-02-23T04:23:40.433Z,632.00
2023-02-23T05:20:40.147Z,611.00
2023-02-23T05:21:40.153Z,611.00
2023-02-23T05:22:40.147Z,611.00
2023-02-23T05:23:40.134Z,605.00
2023-02-23T05:24:40.124Z,607.00
2023-02-23T05:25:40.126Z,608.00
2023-02-23T05:26:40.129Z,608.00
2023-02-23T05:27:40.135Z,609.00
2023-02-23T05:28:40.133Z,609.00
2023-02-23T05:29:40.130Z,609.00
2023-02-23T05:30:40.150Z,610.00
2023-02-23T05:31:40.230Z,612.00
2023-02-23T05:32:40.110Z,609.00
2023-02-23T05:33:40.105Z,610.00
2023-02-23T05:34:40.095Z,610.00
2023-02-23T05:35:40.096Z,612.00
2023-02-23T05:36:40.103Z,616.00
2023-02-23T05:37:40.097Z,614.00
2023-02-23T05:38:40.081Z,615.00
2023-02-23T05:39:40.081Z,611.00
2023-02-23T05:40:40.068Z,606.00
2023-02-23T05:41:40.069Z,606.00
2023-02-23T05:42:40.066Z,608.00
2023-02-23T05:43:40.064Z,612.00
2023-02-23T05:44:40.054Z,611.00
2023-02-23T05:45:40.047Z,608.00
2023-02-23T05:46:40.046Z,609.00
2023-02-23T05:47:40.063Z,605.00
2023-02-23T05:48:40.046Z,612.00
2023-02-23T05:49:40.043Z,611.00
2023-02-23T05:50:40.041Z,606.00
2023-02-23T05:51:40.035Z,607.00
2023-02-23T05:52:40.026Z,609.00
2023-02-23T05:53:40.027Z,613.00
2023-02-23T05:54:40.015Z,607.00
2023-02-23T05:55:40.010Z,610.00
2023-02-23T05:56:39.996Z,607.00
2023-02-23T05:57:40.002Z,604.00
2023-02-23T05:58:40.003Z,611.00
2023-02-23T05:59:39.997Z,608.00
2023-02-23T06:00:39.992Z,609.00
2023-02-23T06:01:39.987Z,606.00
2023-02-23T06:02:40.003Z,597.00
2023-02-23T06:03:39.978Z,599.00
2023-02-23T06:04:39.982Z,603.00
2023-02-23T06:05:39.950Z,603.00
2023-02-23T06:06:39.949Z,606.00
2023-02-23T06:07:39.943Z,602.00
2023-02-23T06:08:39.938Z,602.00
2023-02-23T06:09:39.921Z,608.00
2023-02-23T06:10:39.912Z,608.00
2023-02-23T06:11:39.902Z,608.00
2023-02-23T06:12:39.903Z,608.00
2023-02-23T06:13:39.889Z,604.00
2023-02-23T06:14:39.892Z,608.00
2023-02-23T06:15:39.904Z,608.00
2023-02-23T06:16:40.019Z,608.00
2023-02-23T06:17:39.856Z,609.00
2023-02-23T06:18:39.853Z,603.00
2023-02-23T06:19:39.853Z,604.00
2023-02-23T06:20:40.455Z,601.00
2023-02-23T06:21:39.826Z,601.00
2023-02-23T06:22:39.819Z,600.00
2023-02-23T06:23:39.802Z,599.00
2023-02-23T06:24:39.788Z,589.00
2023-02-23T06:25:39.792Z,589.00
2023-02-23T06:26:39.798Z,594.00
2023-02-23T06:27:39.769Z,599.00
2023-02-23T06:28:39.748Z,593.00
2023-02-23T06:29:39.763Z,591.00
2023-02-23T06:30:39.775Z,597.00
2023-02-23T06:31:39.830Z,600.00
2023-02-23T06:32:39.786Z,601.00
2023-02-23T06:33:39.730Z,603.00
2023-02-23T06:34:39.706Z,604.00
2023-02-23T06:35:39.693Z,605.00
2023-02-23T06:36:39.666Z,612.00
2023-02-23T06:37:39.669Z,621.00
2023-02-23T06:38:39.657Z,622.00
2023-02-23T06:39:39.641Z,626.00
2023-02-23T06:40:39.620Z,639.00
2023-02-23T06:41:39.608Z,662.00
2023-02-23T06:42:39.598Z,755.00
2023-02-23T06:43:39.611Z,798.00
2023-02-23T06:44:39.581Z,844.00
2023-02-23T06:45:39.563Z,896.00
2023-02-23T06:46:39.588Z,968.00
2023-02-23T06:47:39.541Z,1004.00
2023-02-23T06:48:39.530Z,1030.00
2023-02-23T06:49:39.498Z,1067.00
2023-02-23T06:50:39.476Z,1108.00
2023-02-23T06:51:39.470Z,1161.00
2023-02-23T06:52:39.444Z,1202.00
2023-02-23T06:53:39.433Z,1255.00
2023-02-23T06:54:39.407Z,1288.00
2023-02-23T06:55:39.386Z,1321.00
2023-02-23T06:56:39.361Z,1354.00
2023-02-23T06:57:39.350Z,1401.00
2023-02-23T06:58:39.341Z,1440.00
2023-02-23T06:59:39.346Z,1443.00
2023-02-23T07:00:39.277Z,1450.00
2023-02-23T07:01:39.280Z,1470.00
2023-02-23T07:02:39.235Z,1522.00
2023-02-23T07:03:39.236Z,1578.00
2023-02-23T07:04:39.263Z,1614.00
2023-02-23T07:05:39.157Z,1630.00
2023-02-23T07:06:39.132Z,1666.00
2023-02-23T07:07:39.116Z,1658.00
2023-02-23T07:08:39.163Z,1690.00
2023-02-23T07:09:39.063Z,1723.00
2023-02-23T07:10:39.056Z,1712.00
2023-02-23T07:11:39.026Z,1739.00
2023-02-23T07:12:38.997Z,1747.00
2023-02-23T07:13:38.953Z,1765.00
2023-02-23T07:14:38.926Z,1767.00
2023-02-23T07:15:38.910Z,1774.00
2023-02-23T07:16:38.966Z,1787.00
2023-02-23T07:17:38.843Z,1829.00
2023-02-23T07:18:38.825Z,1770.00
2023-02-23T07:19:38.785Z,1788.00
2023-02-23T07:20:38.766Z,1815.00
2023-02-23T07:21:38.787Z,1863.00
2023-02-23T07:22:39.947Z,1946.00
2023-02-23T07:23:38.698Z,1772.00
2023-02-23T07:24:38.642Z,1794.00
2023-02-23T07:25:38.597Z,1837.00
2023-02-23T07:26:38.582Z,1909.00
2023-02-23T07:27:38.556Z,2007.00
2023-02-23T07:28:38.509Z,2015.00
2023-02-23T07:29:38.490Z,2032.00
2023-02-23T07:30:38.470Z,2038.00
2023-02-23T07:31:38.533Z,2039.00
2023-02-23T07:32:38.455Z,2040.00
2023-02-23T07:33:38.370Z,2045.00
2023-02-23T07:34:38.318Z,2050.00
2023-02-23T07:35:38.327Z,2066.00
2023-02-23T07:36:38.256Z,2125.00
2023-02-23T07:37:38.228Z,2138.00
2023-02-23T07:38:38.195Z,2140.00
2023-02-23T07:39:38.220Z,2138.00
2023-02-23T07:40:38.126Z,2138.00
2023-02-23T07:41:38.084Z,2140.00
2023-02-23T07:42:38.053Z,2159.00
2023-02-23T07:43:38.023Z,2179.00
2023-02-23T07:44:38.007Z,2204.00
2023-02-23T07:45:38.036Z,2219.00
2023-02-23T07:46:37.929Z,2234.00
2023-02-23T07:47:37.884Z,2224.00
2023-02-23T07:48:37.870Z,2201.00
2023-02-23T07:49:37.806Z,2205.00
2023-02-23T07:50:37.773Z,2201.00
2023-02-23T07:51:37.772Z,2132.00
2023-02-23T07:52:37.716Z,2096.00
2023-02-23T07:53:37.657Z,2100.00
2023-02-23T07:54:37.622Z,2106.00
2023-02-23T07:55:37.582Z,2145.00
2023-02-23T07:56:37.881Z,2127.00
2023-02-23T07:57:37.531Z,2104.00
2023-02-23T07:58:37.493Z,2089.00
2023-02-23T07:59:37.457Z,2064.00
2023-02-23T08:00:37.448Z,2101.00
2023-02-23T08:01:37.374Z,2122.00
2023-02-23T08:02:37.334Z,2090.00
2023-02-23T08:03:37.329Z,2039.00
2023-02-23T08:04:37.373Z,2013.00
2023-02-23T08:05:37.269Z,2027.00
2023-02-23T08:06:37.219Z,2056.00
2023-02-23T08:07:37.170Z,2051.00
2023-02-23T08:08:37.153Z,2023.00
2023-02-23T08:09:37.107Z,2005.00
2023-02-23T08:10:37.106Z,2006.00
2023-02-23T08:11:37.045Z,2069.00
2023-02-23T08:12:37.090Z,2187.00
2023-02-23T08:13:36.998Z,2163.00
2023-02-23T08:14:36.944Z,2067.00
2023-02-23T08:15:36.900Z,2020.00
2023-02-23T08:16:36.882Z,2002.00
2023-02-23T08:17:37.007Z,2003.00
2023-02-23T08:18:36.798Z,2006.00
2023-02-23T08:19:36.780Z,1986.00
2023-02-23T08:20:36.699Z,1961.00
2023-02-23T08:21:36.666Z,1922.00
2023-02-23T08:22:48.374Z,1923.00
2023-02-23T08:23:37.577Z,1926.00
2023-02-23T08:24:36.549Z,1931.00
2023-02-23T08:25:36.565Z,1927.00
2023-02-23T08:26:36.509Z,1911.00
2023-02-23T08:27:36.437Z,1889.00
2023-02-23T08:28:36.415Z,1929.00
2023-02-23T08:29:36.381Z,1948.00
2023-02-23T08:30:36.534Z,1909.00
2023-02-23T08:31:36.417Z,2101.00
2023-02-23T08:32:36.317Z,2103.00
2023-02-23T08:33:36.234Z,2032.00
2023-02-23T08:34:36.208Z,2033.00
2023-02-23T08:35:36.178Z,2021.00
2023-02-23T08:36:36.153Z,1943.00
2023-02-23T08:37:36.089Z,1911.00
2023-02-23T08:38:36.064Z,1934.00
2023-02-23T08:39:36.041Z,1963.00
2023-02-23T08:40:36.024Z,2054.00
2023-02-23T08:41:35.961Z,2047.00
2023-02-23T08:42:35.945Z,1977.00
2023-02-23T08:43:35.904Z,1865.00
2023-02-23T08:44:35.891Z,1840.00
2023-02-23T08:45:35.835Z,1896.00
2023-02-23T08:46:35.800Z,1832.00
2023-02-23T08:47:35.826Z,1736.00
2023-02-23T08:48:35.730Z,1642.00
2023-02-23T08:49:35.701Z,1595.00
2023-02-23T08:50:35.666Z,1582.00
2023-02-23T08:51:35.651Z,1519.00
2023-02-23T08:52:35.613Z,1426.00
2023-02-23T08:53:35.572Z,1312.00
2023-02-23T08:54:35.571Z,1285.00
2023-02-23T08:55:35.546Z,1320.00
2023-02-23T08:56:35.564Z,1324.00
2023-02-23T08:57:35.476Z,1290.00
2023-02-23T08:58:35.425Z,1290.00
2023-02-23T08:59:35.392Z,1290.00
2023-02-23T09:00:35.385Z,1238.00
2023-02-23T09:01:35.447Z,1223.00
2023-02-23T09:02:35.311Z,1180.00
2023-02-23T09:03:37.095Z,1152.00
2023-02-23T09:04:35.318Z,1140.00
2023-02-23T09:05:35.267Z,1110.00
2023-02-23T09:06:35.228Z,1095.00
2023-02-23T09:07:35.187Z,1080.00
2023-02-23T09:08:35.151Z,1078.00
2023-02-23T09:09:35.114Z,1057.00
2023-02-23T09:10:35.093Z,1030.00
2023-02-23T09:11:35.073Z,1030.00
2023-02-23T09:12:35.043Z,996.00
2023-02-23T09:13:35.005Z,984.00
2023-02-23T09:14:34.987Z,964.00
2023-02-23T09:15:34.967Z,971.00
2023-02-23T09:16:34.969Z,953.00
2023-02-23T09:17:34.902Z,949.00
2023-02-23T09:18:34.877Z,933.00
2023-02-23T09:19:34.836Z,891.00
2023-02-23T09:20:34.809Z,900.00
2023-02-23T09:21:34.793Z,885.00
2023-02-23T09:22:36.752Z,867.00
2023-02-23T09:23:34.771Z,868.00
2023-02-23T09:24:34.709Z,869.00
2023-02-23T09:25:34.688Z,858.00
2023-02-23T09:26:34.691Z,859.00
2023-02-23T09:27:34.737Z,863.00
2023-02-23T09:28:34.725Z,858.00
2023-02-23T09:29:34.577Z,832.00
2023-02-23T09:30:34.616Z,816.00
2023-02-23T09:31:34.633Z,811.00
2023-02-23T09:32:34.697Z,843.00
2023-02-23T09:33:34.497Z,849.00
2023-02-23T09:34:36.371Z,824.00
2023-02-23T09:35:34.432Z,834.00
2023-02-23T09:36:34.554Z,818.00
2023-02-23T09:37:34.389Z,821.00
2023-02-23T09:38:34.361Z,827.00
2023-02-23T09:39:38.646Z,809.00
2023-02-23T09:40:34.361Z,811.00
2023-02-23T09:41:34.297Z,816.00
2023-02-23T09:42:34.251Z,822.00
2023-02-23T09:43:34.229Z,832.00
2023-02-23T09:44:34.208Z,849.00
2023-02-23T09:45:34.176Z,833.00
2023-02-23T09:46:34.165Z,803.00
2023-02-23T09:47:34.165Z,811.00
2023-02-23T09:48:34.131Z,828.00
2023-02-23T09:49:34.102Z,806.00
2023-02-23T09:50:34.074Z,787.00
2023-02-23T09:51:34.036Z,765.00
2023-02-23T09:52:34.263Z,761.00
2023-02-23T09:53:34.291Z,746.00
2023-02-23T09:54:33.957Z,720.00
2023-02-23T09:55:33.942Z,741.00
2023-02-23T09:56:33.948Z,759.00
2023-02-23T09:57:33.866Z,775.00
2023-02-23T09:58:33.854Z,819.00
2023-02-23T09:59:33.810Z,813.00
2023-02-23T10:00:33.788Z,819.00
2023-02-23T10:01:33.829Z,834.00
2023-02-23T10:02:33.749Z,831.00
2023-02-23T10:03:33.682Z,842.00
2023-02-23T10:04:33.727Z,839.00
2023-02-23T10:05:33.701Z,868.00
2023-02-23T10:06:33.617Z,902.00
2023-02-23T10:07:33.581Z,919.00
2023-02-23T10:08:33.522Z,948.00
2023-02-23T10:09:33.495Z,960.00
2023-02-23T10:10:33.463Z,987.00
2023-02-23T10:11:33.415Z,967.00
2023-02-23T10:12:33.398Z,966.00
2023-02-23T10:13:33.398Z,999.00
2023-02-23T10:14:33.332Z,1012.00
2023-02-23T10:15:33.300Z,991.00
2023-02-23T10:16:33.258Z,988.00
2023-02-23T10:17:33.199Z,1078.00
2023-02-23T10:18:45.644Z,1099.00
2023-02-23T10:19:34.122Z,1100.00
2023-02-23T10:20:33.100Z,1108.00
2023-02-23T10:21:33.066Z,1103.00
2023-02-23T10:22:33.042Z,1100.00
2023-02-23T10:23:33.023Z,1104.00
2023-02-23T10:24:32.947Z,1137.00
2023-02-23T10:25:32.906Z,1182.00
2023-02-23T10:26:32.870Z,1253.00
2023-02-23T10:27:32.859Z,1304.00
2023-02-23T10:28:32.806Z,1336.00
2023-02-23T10:29:32.749Z,1355.00
2023-02-23T10:30:32.744Z,1335.00
2023-02-23T10:31:32.745Z,1315.00
2023-02-23T10:32:32.657Z,1316.00
2023-02-23T10:33:32.570Z,1349.00
2023-02-23T10:34:32.550Z,1337.00
2023-02-23T10:35:32.478Z,1353.00
2023-02-23T10:36:32.469Z,1406.00
2023-02-23T10:37:32.407Z,1449.00
2023-02-23T10:38:32.367Z,1471.00
2023-02-23T10:39:32.315Z,1488.00
2023-02-23T10:40:32.266Z,1493.00
2023-02-23T10:41:32.222Z,1591.00
2023-02-23T10:42:32.235Z,1633.00
2023-02-23T10:43:32.137Z,1661.00
2023-02-23T10:44:32.144Z,1630.00
2023-02-23T10:45:32.044Z,1501.00
2023-02-23T10:46:32.522Z,1475.00
2023-02-23T10:47:31.941Z,1417.00
2023-02-23T10:48:31.944Z,1396.00
2023-02-23T10:49:31.842Z,1408.00
2023-02-23T10:50:31.838Z,1426.00
2023-02-23T10:51:31.748Z,1341.00
2023-02-23T10:52:32.821Z,1321.00
2023-02-23T10:53:31.646Z,1297.00
2023-02-23T10:54:31.586Z,1257.00
2023-02-23T10:55:31.553Z,1279.00
2023-02-23T10:56:31.490Z,1278.00
2023-02-23T10:57:31.461Z,1268.00
2023-02-23T10:58:31.412Z,1275.00
2023-02-23T10:59:31.357Z,1228.00
2023-02-23T11:00:31.319Z,1188.00
2023-02-23T11:01:31.292Z,1255.00
2023-02-23T11:02:31.302Z,1278.00
2023-02-23T11:03:31.197Z,1277.00
2023-02-23T11:04:31.210Z,1294.00
2023-02-23T11:05:31.111Z,1358.00
2023-02-23T11:06:31.028Z,1313.00
2023-02-23T11:07:30.977Z,1338.00
2023-02-23T11:08:30.970Z,1421.00
2023-02-23T11:09:45.075Z,1471.00
2023-02-23T11:10:31.818Z,1473.00
2023-02-23T11:11:30.763Z,1474.00
2023-02-23T11:12:30.712Z,1454.00
2023-02-23T11:13:30.682Z,1441.00
2023-02-23T11:14:30.619Z,1422.00
2023-02-23T11:15:48.540Z,1428.00
2023-02-23T11:16:30.568Z,1428.00
2023-02-23T11:17:30.549Z,1430.00
2023-02-23T11:18:30.424Z,1428.00
2023-02-23T11:19:30.381Z,1381.00
2023-02-23T11:20:30.337Z,1390.00
2023-02-23T11:21:30.292Z,1400.00
2023-02-23T11:22:30.252Z,1424.00
2023-02-23T11:23:30.224Z,1439.00
2023-02-23T11:24:30.177Z,1466.00
2023-02-23T11:25:30.133Z,1480.00
2023-02-23T11:26:30.125Z,1482.00
2023-02-23T11:27:30.038Z,1450.00
2023-02-23T11:28:29.989Z,1500.00
2023-02-23T11:29:29.954Z,1535.00
2023-02-23T11:30:29.924Z,1535.00
2023-02-23T11:31:29.916Z,1475.00
2023-02-23T11:32:29.948Z,1518.00
2023-02-23T11:33:29.791Z,1518.00
2023-02-23T11:34:29.732Z,1540.00
2023-02-23T11:35:29.667Z,1560.00
2023-02-23T11:36:29.810Z,1674.00
2023-02-23T11:37:29.563Z,1752.00
2023-02-23T11:38:29.645Z,1750.00
2023-02-23T11:39:29.467Z,1198.00
2023-02-23T11:40:29.486Z,691.00
2023-02-23T11:41:29.423Z,400.00
2023-02-23T11:42:29.368Z,400.00
2023-02-23T11:43:29.355Z,400.00
2023-02-23T11:44:29.327Z,400.00
2023-02-23T11:45:30.301Z,400.00
2023-02-23T11:46:29.438Z,400.00
2023-02-23T11:47:29.309Z,400.00
2023-02-23T11:48:29.320Z,400.00
2023-02-23T11:49:29.323Z,400.00
2023-02-23T11:50:29.317Z,400.00
2023-02-23T11:51:29.346Z,400.00
2023-02-23T11:52:29.354Z,400.00
2023-02-23T11:53:29.365Z,400.00
2023-02-23T11:54:29.390Z,400.00
2023-02-23T11:55:29.395Z,507.00
2023-02-23T11:56:29.372Z,443.00
2023-02-23T11:57:29.366Z,502.00
2023-02-23T11:58:29.421Z,733.00
2023-02-23T11:59:29.356Z,599.00
2023-02-23T12:00:29.354Z,559.00
2023-02-23T12:01:29.343Z,509.00
2023-02-23T12:02:29.375Z,499.00
2023-02-23T12:03:29.337Z,483.00
2023-02-23T12:04:29.400Z,537.00
2023-02-23T12:05:29.334Z,506.00
2023-02-23T12:06:29.671Z,400.00
2023-02-23T12:07:29.339Z,493.00
2023-02-23T12:08:29.349Z,617.00
2023-02-23T12:09:29.375Z,598.00
2023-02-23T12:10:29.411Z,833.00
2023-02-23T12:11:29.393Z,556.00
2023-02-23T12:12:29.416Z,526.00
2023-02-23T12:13:29.427Z,400.00
2023-02-23T12:14:29.466Z,400.00
2023-02-23T12:15:29.547Z,400.00
2023-02-23T12:16:29.575Z,424.00
2023-02-23T12:17:29.596Z,405.00
2023-02-23T12:18:29.642Z,454.00
2023-02-23T12:19:29.709Z,540.00
2023-02-23T12:20:29.775Z,546.00
2023-02-23T12:21:29.749Z,505.00
2023-02-23T12:22:29.767Z,594.00
2023-02-23T12:23:29.811Z,1018.00
2023-02-23T12:24:29.806Z,1315.00
2023-02-23T12:25:29.815Z,1499.00
2023-02-23T12:26:29.815Z,1571.00
2023-02-23T12:27:29.814Z,1665.00
2023-02-23T12:28:29.794Z,1810.00
2023-02-23T12:29:29.794Z,1955.00
2023-02-23T12:30:29.819Z,2079.00
2023-02-23T12:31:29.807Z,2227.00
2023-02-23T12:32:29.784Z,2341.00
2023-02-23T12:33:29.753Z,2345.00
2023-02-23T12:34:29.724Z,2362.00
2023-02-23T12:35:31.192Z,2393.00
2023-02-23T12:36:29.667Z,2438.00
2023-02-23T12:37:29.637Z,2587.00
2023-02-23T12:38:29.644Z,2690.00
2023-02-23T12:39:29.594Z,2740.00
2023-02-23T12:40:29.588Z,2787.00
2023-02-23T12:41:29.544Z,2885.00
2023-02-23T12:42:29.527Z,2921.00
2023-02-23T12:43:29.533Z,2964.00
2023-02-23T12:44:29.461Z,3034.00
2023-02-23T12:45:29.465Z,3097.00
2023-02-23T12:46:29.439Z,3134.00
2023-02-23T12:47:29.362Z,3127.00
2023-02-23T12:48:29.336Z,3129.00
2023-02-23T12:49:29.312Z,3133.00
2023-02-23T12:50:29.304Z,3141.00
2023-02-23T12:51:29.270Z,3137.00
2023-02-23T12:52:29.233Z,3210.00
2023-02-23T12:53:29.209Z,3195.00
2023-02-23T12:54:29.185Z,3203.00
2023-02-23T12:55:29.171Z,3204.00
2023-02-23T12:56:29.134Z,3232.00
2023-02-23T12:57:29.114Z,3250.00
2023-02-23T12:58:29.095Z,3255.00
2023-02-23T12:59:30.026Z,3263.00
2023-02-23T13:00:29.132Z,3287.00
2023-02-23T13:01:28.990Z,3266.00
2023-02-23T13:02:29.040Z,3267.00
2023-02-23T13:03:28.931Z,3294.00
2023-02-23T13:04:28.912Z,3264.00
2023-02-23T13:05:28.911Z,3245.00
2023-02-23T13:06:28.841Z,3288.00
2023-02-23T13:07:28.825Z,3300.00
2023-02-23T13:08:28.785Z,3301.00
2023-02-23T13:09:28.738Z,3290.00
2023-02-23T13:10:28.720Z,3296.00
2023-02-23T13:11:28.673Z,3308.00
2023-02-23T13:12:28.671Z,3286.00
2023-02-23T13:13:28.613Z,3308.00
2023-02-23T13:14:28.567Z,3362.00
2023-02-23T13:15:28.562Z,3349.00